Time;durP1;ratioP1;P1;durP2;ratioP2;P2;SDS_P1;SDS_P2;PMS_P1;PMS_P2;Temp;Humidity;BMP_temperature;BMP_pressure;BME280_temperature;BME280_humidity;BME280_pressure;Samples;Min_cycle;Max_cycle;Signal;HPM_P1;HPM_P2
2023/01/11 00:01:04;;;;;;;0.30;0.30;;;4.90;99.90;;;;;;5040848;28;20454;-86
2023/01/11 00:03:30;;;;;;;0.30;0.30;;;4.90;99.90;;;;;;5042567;28;20453;-86
2023/01/11 00:05:57;;;;;;;0.30;0.30;;;4.90;99.90;;;;;;5046158;28;20486;-86
2023/01/11 00:08:24;;;;;;;0.40;0.40;;;4.90;99.90;;;;;;5030695;28;21028;-86
2023/01/11 00:10:50;;;;;;;0.30;0.30;;;5.00;99.90;;;;;;5055056;28;20441;-86
2023/01/11 00:13:16;;;;;;;0.27;0.27;;;5.00;99.90;;;;;;5050410;28;20930;-87
2023/01/11 00:15:41;;;;;;;0.30;0.30;;;5.00;99.90;;;;;;5042350;28;20195;-87
2023/01/11 00:18:07;;;;;;;0.30;0.30;;;5.00;99.90;;;;;;5046061;28;20201;-86
2023/01/11 00:20:33;;;;;;;0.30;0.30;;;5.10;99.90;;;;;;5029975;28;20178;-88
2023/01/11 00:22:59;;;;;;;0.30;0.30;;;5.10;99.90;;;;;;5049125;28;20460;-86
2023/01/11 00:25:24;;;;;;;0.30;0.30;;;5.10;99.90;;;;;;5048617;28;20308;-87
2023/01/11 00:27:50;;;;;;;0.30;0.30;;;5.10;99.90;;;;;;5043811;28;20186;-86
2023/01/11 00:30:17;;;;;;;0.30;0.30;;;5.20;99.90;;;;;;5046114;28;20178;-87
2023/01/11 00:32:42;;;;;;;0.30;0.30;;;5.20;99.90;;;;;;5028410;28;20580;-87
2023/01/11 00:35:08;;;;;;;0.30;0.30;;;5.20;99.90;;;;;;5045675;28;20484;-86
2023/01/11 00:37:34;;;;;;;0.30;0.30;;;5.20;99.90;;;;;;5046219;28;20187;-87
2023/01/11 00:40:00;;;;;;;0.30;0.30;;;5.20;99.90;;;;;;5043973;28;20812;-87
2023/01/11 00:47:56;;;;;;;0.37;0.37;;;5.20;99.90;;;;;;5045373;28;20445;-87
2023/01/11 00:50:23;;;;;;;0.30;0.30;;;5.20;99.90;;;;;;5024646;28;20585;-86
2023/01/11 00:52:49;;;;;;;0.30;0.30;;;5.20;99.90;;;;;;5047218;28;20485;-85
2023/01/11 00:55:14;;;;;;;0.30;0.30;;;5.30;99.90;;;;;;5048098;28;20590;-86
2023/01/11 00:57:40;;;;;;;0.30;0.30;;;5.30;99.90;;;;;;5046009;28;20264;-86
2023/01/11 01:00:06;;;;;;;0.30;0.30;;;5.30;99.90;;;;;;5046077;28;20183;-87
2023/01/11 01:02:32;;;;;;;0.30;0.30;;;5.30;99.90;;;;;;5047846;28;20186;-86
2023/01/11 01:04:59;;;;;;;0.30;0.30;;;5.30;99.90;;;;;;5040906;28;20487;-86
2023/01/11 01:07:24;;;;;;;0.30;0.30;;;5.30;99.90;;;;;;5043712;28;20483;-87
2023/01/11 01:09:50;;;;;;;0.30;0.30;;;5.30;99.90;;;;;;5044122;28;20461;-86
2023/01/11 01:14:24;;;;;;;0.30;0.30;;;5.40;99.90;;;;;;5043950;28;20218;-85
2023/01/11 01:15:01;;;;;;;0.30;0.30;;;5.50;99.90;;;;;;5051363;28;20285;-86
2023/01/11 01:17:27;;;;;;;0.30;0.30;;;5.50;99.90;;;;;;5046452;28;20520;-86
2023/01/11 01:19:52;;;;;;;0.30;0.30;;;5.50;99.90;;;;;;5048615;28;20543;-85
2023/01/11 01:22:18;;;;;;;0.30;0.30;;;5.50;99.90;;;;;;5047767;28;20565;-86
2023/01/11 01:24:43;;;;;;;0.30;0.30;;;5.50;99.90;;;;;;5047960;28;20639;-85
2023/01/11 01:27:14;;;;;;;0.30;0.30;;;5.50;99.90;;;;;;5024885;28;20937;-86
2023/01/11 01:29:40;;;;;;;0.20;0.20;;;5.50;99.90;;;;;;5042074;28;20179;-88
2023/01/11 01:32:05;;;;;;;0.30;0.30;;;5.60;99.90;;;;;;5051198;28;20492;-86
2023/01/11 01:34:31;;;;;;;0.30;0.30;;;5.60;99.90;;;;;;5046112;28;20556;-86
2023/01/11 01:36:56;;;;;;;0.30;0.30;;;5.60;99.90;;;;;;5052195;28;20186;-86
2023/01/11 01:39:22;;;;;;;0.30;0.30;;;5.60;99.90;;;;;;5034237;28;20281;-85
2023/01/11 01:41:47;;;;;;;0.23;0.23;;;5.60;99.90;;;;;;5039817;28;20624;-86
2023/01/11 01:44:50;;;;;;;0.30;0.30;;;5.60;99.90;;;;;;5041564;28;20238;-86
2023/01/11 01:47:17;;;;;;;0.30;0.30;;;5.60;99.90;;;;;;5044520;28;20186;-85
2023/01/11 01:49:43;;;;;;;0.30;0.30;;;5.60;99.90;;;;;;5044036;28;20445;-86
2023/01/11 01:52:11;;;;;;;0.20;0.20;;;5.60;99.90;;;;;;5048844;28;20483;-85
2023/01/11 01:54:40;;;;;;;0.30;0.30;;;5.70;99.90;;;;;;5047978;28;20445;-85
2023/01/11 01:57:17;;;;;;;0.30;0.30;;;5.70;99.90;;;;;;5039896;28;20441;-85
2023/01/11 01:59:43;;;;;;;0.30;0.30;;;5.70;99.90;;;;;;5034372;28;20790;-86
2023/01/11 02:02:09;;;;;;;0.30;0.30;;;5.80;99.90;;;;;;5050126;28;20448;-86
2023/01/11 02:04:39;;;;;;;0.30;0.30;;;5.80;99.90;;;;;;5048933;28;20224;-86
2023/01/11 02:07:09;;;;;;;0.30;0.30;;;5.90;99.90;;;;;;5040735;28;20442;-86
2023/01/11 02:09:44;;;;;;;0.30;0.30;;;5.80;99.90;;;;;;5044606;28;20456;-86
2023/01/11 02:12:10;;;;;;;0.30;0.30;;;5.90;99.90;;;;;;5022985;28;20472;-86
2023/01/11 02:14:38;;;;;;;0.20;0.20;;;5.90;99.90;;;;;;5045457;28;20602;-86
2023/01/11 02:17:04;;;;;;;0.30;0.30;;;5.90;99.90;;;;;;5050001;28;20272;-85
2023/01/11 02:19:48;;;;;;;0.30;0.30;;;6.00;99.90;;;;;;5047730;28;20488;-86
2023/01/11 02:22:42;;;;;;;0.30;0.30;;;6.00;99.90;;;;;;5049891;28;20191;-87
2023/01/11 02:25:11;;;;;;;0.30;0.30;;;6.10;99.90;;;;;;5041833;28;20440;-85
2023/01/11 02:28:07;;;;;;;0.30;0.30;;;6.10;99.90;;;;;;5045189;28;20444;-86
2023/01/11 02:30:48;;;;;;;0.30;0.30;;;6.10;99.90;;;;;;5049231;28;20440;-87
2023/01/11 02:33:30;;;;;;;0.23;0.23;;;6.10;99.90;;;;;;5049636;28;20515;-86
2023/01/11 02:36:20;;;;;;;0.27;0.27;;;6.10;99.90;;;;;;5046580;28;20459;-86
2023/01/11 02:39:13;;;;;;;0.30;0.30;;;6.20;99.90;;;;;;5049673;28;20484;-86
2023/01/11 02:45:12;;;;;;;0.20;0.20;;;6.20;99.90;;;;;;5043925;28;20536;-86
2023/01/11 02:47:49;;;;;;;0.20;0.20;;;6.20;99.90;;;;;;5031397;28;20555;-86
2023/01/11 02:50:48;;;;;;;0.30;0.30;;;6.20;99.90;;;;;;5043642;28;20420;-86
2023/01/11 02:53:32;;;;;;;0.30;0.30;;;6.20;99.90;;;;;;5029551;28;20499;-86
2023/01/11 02:56:02;;;;;;;0.20;0.20;;;6.20;99.90;;;;;;5039897;28;20494;-86
2023/01/11 02:58:32;;;;;;;0.30;0.30;;;6.30;99.90;;;;;;5039547;28;20952;-85
2023/01/11 03:00:59;;;;;;;0.30;0.30;;;6.30;99.90;;;;;;5018817;28;20459;-86
2023/01/11 03:03:28;;;;;;;0.30;0.30;;;6.30;99.90;;;;;;5031716;28;20452;-86
2023/01/11 03:06:04;;;;;;;0.20;0.20;;;6.30;99.90;;;;;;5027672;28;20485;-86
2023/01/11 03:08:40;;;;;;;0.30;0.30;;;6.40;99.90;;;;;;5050319;28;20455;-86
2023/01/11 03:11:10;;;;;;;0.20;0.20;;;6.40;99.90;;;;;;5050804;28;20429;-86
2023/01/11 03:13:58;;;;;;;0.20;0.20;;;6.40;99.90;;;;;;5046892;28;20520;-85
2023/01/11 03:16:40;;;;;;;0.30;0.30;;;6.50;99.90;;;;;;5042427;28;20445;-86
2023/01/11 03:19:48;;;;;;;0.20;0.20;;;6.50;99.90;;;;;;5035663;28;20450;-85
2023/01/11 03:22:32;;;;;;;0.30;0.30;;;6.50;99.90;;;;;;5030044;28;20791;-85
2023/01/11 03:25:26;;;;;;;0.30;0.30;;;6.50;99.90;;;;;;5026087;28;20451;-85
2023/01/11 03:28:06;;;;;;;0.30;0.30;;;6.50;99.90;;;;;;5016459;28;20461;-83
2023/01/11 03:30:39;;;;;;;0.30;0.30;;;6.50;99.90;;;;;;5046003;28;20491;-83
2023/01/11 03:33:29;;;;;;;0.30;0.30;;;6.50;99.90;;;;;;5042731;28;20480;-82
2023/01/11 03:35:59;;;;;;;0.20;0.20;;;6.50;99.90;;;;;;5045119;28;20461;-85
2023/01/11 03:38:44;;;;;;;0.20;0.20;;;6.60;99.90;;;;;;5048177;28;20457;-85
2023/01/11 03:41:17;;;;;;;0.20;0.20;;;6.60;99.90;;;;;;5041982;28;20448;-86
2023/01/11 03:43:45;;;;;;;0.20;0.20;;;6.60;99.90;;;;;;5048106;28;20441;-84
2023/01/11 03:46:33;;;;;;;0.23;0.23;;;6.60;99.90;;;;;;5045404;28;20528;-83
2023/01/11 03:49:08;;;;;;;0.30;0.30;;;6.70;99.90;;;;;;5038202;28;20457;-84
2023/01/11 03:51:40;;;;;;;0.27;0.27;;;6.70;99.90;;;;;;5043200;28;20490;-84
2023/01/11 03:54:10;;;;;;;0.30;0.30;;;6.70;99.90;;;;;;5046712;28;20485;-84
2023/01/11 03:56:52;;;;;;;0.30;0.30;;;6.80;99.90;;;;;;5019573;28;21092;-84
2023/01/11 03:59:18;;;;;;;0.30;0.30;;;6.80;99.90;;;;;;5034365;28;20450;-84
2023/01/11 04:01:44;;;;;;;0.20;0.20;;;6.80;99.90;;;;;;5046730;28;20510;-83
2023/01/11 04:04:09;;;;;;;0.30;0.30;;;6.90;99.90;;;;;;5046861;28;20199;-82
2023/01/11 04:06:36;;;;;;;0.20;0.20;;;6.80;99.90;;;;;;5048061;28;20183;-83
2023/01/11 04:09:03;;;;;;;0.20;0.20;;;6.80;99.90;;;;;;5031656;28;20200;-83
2023/01/11 04:11:29;;;;;;;0.27;0.27;;;6.90;99.90;;;;;;5044513;28;20449;-84
2023/01/11 04:13:54;;;;;;;0.20;0.20;;;6.90;99.90;;;;;;5030130;28;20491;-84
2023/01/11 04:16:20;;;;;;;0.30;0.30;;;6.90;99.90;;;;;;5047711;28;20208;-84
2023/01/11 04:18:45;;;;;;;0.30;0.30;;;7.00;99.90;;;;;;5046239;28;20236;-83
2023/01/11 04:21:11;;;;;;;0.30;0.30;;;7.00;99.90;;;;;;5047539;28;20189;-84
2023/01/11 04:23:36;;;;;;;0.20;0.20;;;7.00;99.90;;;;;;5029198;28;20205;-83
2023/01/11 04:26:02;;;;;;;0.20;0.20;;;7.00;99.90;;;;;;5045818;28;20265;-83
2023/01/11 04:28:27;;;;;;;0.20;0.20;;;7.00;99.90;;;;;;5048519;28;20206;-84
2023/01/11 04:30:53;;;;;;;0.20;0.20;;;7.00;99.90;;;;;;5028053;28;20197;-83
2023/01/11 04:33:18;;;;;;;0.30;0.30;;;7.00;99.90;;;;;;5044392;28;20787;-83
2023/01/11 04:35:44;;;;;;;0.30;0.30;;;7.00;99.90;;;;;;5049265;28;20183;-83
2023/01/11 04:38:10;;;;;;;0.30;0.30;;;7.10;99.90;;;;;;5046693;28;20187;-83
2023/01/11 04:40:35;;;;;;;0.20;0.20;;;7.10;99.90;;;;;;5045543;28;20445;-83
2023/01/11 04:43:01;;;;;;;0.30;0.30;;;7.10;99.90;;;;;;5046949;28;20191;-83
2023/01/11 04:45:28;;;;;;;0.20;0.20;;;7.00;99.90;;;;;;5046176;28;20198;-81
2023/01/11 04:47:55;;;;;;;0.20;0.20;;;7.10;99.90;;;;;;5032943;28;20563;-81
2023/01/11 04:50:21;;;;;;;0.20;0.20;;;7.10;99.90;;;;;;5031440;28;21012;-82
2023/01/11 04:52:47;;;;;;;0.20;0.20;;;7.10;99.90;;;;;;5052352;28;20491;-81
2023/01/11 04:55:12;;;;;;;0.20;0.20;;;7.10;99.90;;;;;;5048267;28;20441;-81
2023/01/11 04:57:38;;;;;;;0.20;0.20;;;7.10;99.90;;;;;;5052734;28;20674;-81
2023/01/11 05:00:09;;;;;;;0.20;0.20;;;7.10;99.90;;;;;;5040251;28;20196;-81
2023/01/11 05:02:35;;;;;;;0.20;0.20;;;7.20;99.90;;;;;;5049253;28;20187;-81
2023/01/11 05:05:01;;;;;;;0.27;0.27;;;7.20;99.90;;;;;;5049645;28;20473;-81
2023/01/11 05:07:26;;;;;;;0.20;0.20;;;7.20;99.90;;;;;;5035448;28;20883;-81
2023/01/11 05:09:52;;;;;;;0.30;0.30;;;7.20;99.90;;;;;;5028988;28;20192;-81
2023/01/11 05:12:17;;;;;;;0.20;0.20;;;7.30;99.90;;;;;;5049022;28;20222;-82
2023/01/11 05:14:44;;;;;;;0.20;0.20;;;7.30;99.90;;;;;;5033364;28;20209;-81
2023/01/11 05:17:14;;;;;;;0.20;0.20;;;7.30;99.90;;;;;;5050787;28;20440;-83
2023/01/11 05:19:39;;;;;;;0.20;0.20;;;7.30;99.90;;;;;;5043724;28;20202;-83
2023/01/11 05:22:05;;;;;;;0.30;0.30;;;7.30;99.90;;;;;;5052131;28;20479;-81
2023/01/11 05:24:31;;;;;;;0.20;0.20;;;7.30;99.90;;;;;;5051139;28;20187;-81
2023/01/11 05:26:56;;;;;;;0.20;0.20;;;7.40;99.90;;;;;;5031708;28;20197;-81
2023/01/11 05:29:22;;;;;;;0.30;0.30;;;7.40;99.90;;;;;;5047976;28;20187;-80
2023/01/11 05:31:48;;;;;;;0.20;0.20;;;7.40;99.90;;;;;;5032861;28;20194;-83
2023/01/11 05:34:14;;;;;;;0.20;0.20;;;7.40;99.90;;;;;;5050255;28;20234;-83
2023/01/11 05:36:40;;;;;;;0.20;0.20;;;7.50;99.90;;;;;;5050034;28;20441;-81
2023/01/11 05:39:07;;;;;;;0.20;0.20;;;7.50;99.90;;;;;;5048485;28;20477;-81
2023/01/11 05:41:33;;;;;;;0.20;0.20;;;7.50;99.90;;;;;;5046443;28;20512;-81
2023/01/11 05:46:43;;;;;;;0.30;0.30;;;7.50;99.90;;;;;;5049719;28;20444;-80
2023/01/11 05:49:11;;;;;;;0.30;0.30;;;7.50;99.90;;;;;;5048830;28;20441;-84
2023/01/11 05:51:39;;;;;;;0.30;0.30;;;7.60;99.90;;;;;;5047238;28;20455;-83
2023/01/11 05:54:08;;;;;;;0.20;0.20;;;7.60;99.90;;;;;;5047941;28;20484;-80
2023/01/11 05:56:33;;;;;;;0.20;0.20;;;7.60;99.90;;;;;;5051812;28;20945;-81
2023/01/11 05:58:59;;;;;;;0.20;0.20;;;7.60;99.90;;;;;;5044465;28;20524;-82
2023/01/11 06:01:25;;;;;;;0.20;0.20;;;7.70;99.90;;;;;;5045380;28;20179;-83
2023/01/11 06:03:51;;;;;;;0.20;0.20;;;7.70;99.90;;;;;;5048602;28;20213;-82
2023/01/11 06:06:18;;;;;;;0.20;0.20;;;7.70;99.90;;;;;;5044105;28;20317;-82
2023/01/11 06:08:43;;;;;;;0.20;0.20;;;7.70;99.90;;;;;;5043420;28;20944;-83
2023/01/11 06:11:09;;;;;;;0.20;0.20;;;7.70;99.90;;;;;;5024779;28;20475;-83
2023/01/11 06:13:35;;;;;;;0.20;0.20;;;7.70;99.90;;;;;;5040865;28;20268;-83
2023/01/11 06:16:02;;;;;;;0.20;0.20;;;7.80;99.90;;;;;;5029797;28;20201;-83
2023/01/11 06:18:29;;;;;;;0.20;0.20;;;7.80;99.90;;;;;;5046696;28;20269;-82
2023/01/11 06:20:55;;;;;;;0.20;0.20;;;7.80;99.90;;;;;;5048763;28;20556;-80
2023/01/11 06:23:22;;;;;;;0.20;0.20;;;7.70;99.90;;;;;;5044369;28;21005;-80
2023/01/11 06:25:47;;;;;;;0.20;0.20;;;7.80;99.90;;;;;;5032400;28;20528;-80
2023/01/11 06:28:13;;;;;;;0.20;0.20;;;7.80;99.90;;;;;;5044084;28;20843;-79
2023/01/11 06:30:39;;;;;;;0.20;0.20;;;7.80;99.90;;;;;;5022807;28;20217;-80
2023/01/11 06:33:05;;;;;;;0.20;0.20;;;7.80;99.90;;;;;;5025124;28;20261;-79
2023/01/11 06:35:39;;;;;;;0.20;0.20;;;7.80;99.90;;;;;;5047053;28;20564;-80
2023/01/11 06:38:10;;;;;;;0.20;0.20;;;7.80;99.90;;;;;;5045984;28;20449;-79
2023/01/11 06:40:36;;;;;;;0.20;0.20;;;7.80;99.90;;;;;;5050358;28;20841;-80
2023/01/11 06:43:02;;;;;;;0.20;0.20;;;7.90;99.90;;;;;;5030083;28;20940;-79
2023/01/11 06:45:27;;;;;;;0.20;0.20;;;7.90;99.90;;;;;;5046010;28;20452;-80
2023/01/11 06:47:53;;;;;;;0.20;0.20;;;7.80;99.90;;;;;;5042756;28;20194;-80
2023/01/11 06:50:18;;;;;;;0.20;0.20;;;7.80;99.90;;;;;;5050529;28;20274;-79
2023/01/11 06:52:52;;;;;;;0.20;0.20;;;7.90;99.90;;;;;;5048427;28;20223;-80
2023/01/11 06:55:18;;;;;;;0.20;0.20;;;7.90;99.90;;;;;;5047166;28;20189;-80
2023/01/11 06:57:44;;;;;;;0.20;0.20;;;8.00;99.90;;;;;;5043549;28;20448;-81
2023/01/11 07:00:10;;;;;;;0.20;0.20;;;8.00;99.90;;;;;;5051422;28;20539;-79
2023/01/11 07:02:35;;;;;;;0.20;0.20;;;8.00;99.90;;;;;;5047241;28;20214;-79
2023/01/11 07:05:01;;;;;;;0.20;0.20;;;8.00;99.90;;;;;;5043904;28;21039;-78
2023/01/11 07:07:26;;;;;;;0.20;0.20;;;8.00;99.90;;;;;;5048639;28;20178;-79
2023/01/11 07:09:53;;;;;;;0.20;0.20;;;7.90;99.90;;;;;;5046521;28;20911;-82
2023/01/11 07:12:19;;;;;;;0.27;0.27;;;7.90;99.90;;;;;;5049265;28;20179;-80
2023/01/11 07:14:44;;;;;;;0.20;0.20;;;7.90;99.90;;;;;;5027562;28;20611;-79
2023/01/11 07:17:10;;;;;;;0.30;0.30;;;7.90;99.90;;;;;;5044064;28;20635;-80
2023/01/11 07:19:35;;;;;;;0.20;0.20;;;7.90;99.90;;;;;;5046016;28;20194;-79
2023/01/11 07:22:01;;;;;;;0.20;0.20;;;7.90;99.90;;;;;;5044874;28;20194;-80
2023/01/11 07:24:27;;;;;;;0.20;0.20;;;7.90;99.90;;;;;;5040034;28;20190;-80
2023/01/11 07:26:54;;;;;;;0.30;0.30;;;8.00;99.90;;;;;;5044773;28;20178;-80
2023/01/11 07:29:20;;;;;;;0.20;0.20;;;8.00;99.90;;;;;;5049551;28;20543;-79
2023/01/11 07:31:46;;;;;;;0.30;0.30;;;8.00;99.90;;;;;;5043311;28;20544;-79
2023/01/11 07:34:11;;;;;;;0.20;0.20;;;8.00;99.90;;;;;;5026940;28;20586;-80
2023/01/11 07:36:38;;;;;;;0.20;0.20;;;8.00;99.90;;;;;;5023916;28;21022;-79
2023/01/11 07:39:04;;;;;;;0.20;0.20;;;8.00;99.90;;;;;;5039128;28;20194;-80
2023/01/11 07:44:14;;;;;;;0.20;0.20;;;8.00;99.90;;;;;;5047651;28;20448;-79
2023/01/11 07:46:39;;;;;;;0.20;0.20;;;8.00;99.90;;;;;;5046631;28;20441;-79
2023/01/11 07:49:05;;;;;;;0.20;0.20;;;8.00;99.90;;;;;;5046321;28;20182;-79
2023/01/11 07:51:30;;;;;;;0.20;0.20;;;8.00;99.90;;;;;;5045562;28;20270;-79
2023/01/11 07:53:56;;;;;;;0.20;0.20;;;8.00;99.90;;;;;;5039790;28;20229;-79
2023/01/11 07:56:21;;;;;;;0.30;0.30;;;8.00;99.90;;;;;;5024928;28;20626;-79
2023/01/11 07:58:47;;;;;;;0.20;0.20;;;7.90;99.90;;;;;;5047019;28;20236;-79
2023/01/11 08:01:12;;;;;;;0.20;0.20;;;7.90;99.90;;;;;;5048255;28;20647;-79
2023/01/11 08:03:38;;;;;;;0.20;0.20;;;7.90;99.90;;;;;;5047147;28;20201;-78
2023/01/11 08:06:04;;;;;;;0.20;0.20;;;8.00;99.90;;;;;;5027182;28;20226;-79
2023/01/11 08:08:29;;;;;;;0.20;0.20;;;8.00;99.90;;;;;;5047358;28;20195;-79
2023/01/11 08:16:23;;;;;;;0.20;0.20;;;8.00;99.90;;;;;;5040860;28;20865;-79
2023/01/11 08:18:52;;;;;;;0.20;0.20;;;8.00;99.90;;;;;;5015556;28;20449;-78
2023/01/11 08:21:20;;;;;;;0.20;0.20;;;8.10;99.90;;;;;;5028372;28;21299;-78
2023/01/11 08:23:45;;;;;;;0.30;0.30;;;8.00;99.90;;;;;;5028007;28;20828;-79
2023/01/11 08:26:15;;;;;;;0.20;0.20;;;8.10;99.90;;;;;;5045820;28;20531;-78
2023/01/11 08:28:44;;;;;;;0.20;0.20;;;8.10;99.90;;;;;;5048485;28;20187;-79
2023/01/11 08:31:10;;;;;;;0.20;0.20;;;8.10;99.90;;;;;;5035555;28;20442;-79
2023/01/11 08:33:35;;;;;;;0.20;0.20;;;8.10;99.90;;;;;;5045886;28;20814;-80
2023/01/11 08:36:04;;;;;;;0.20;0.20;;;8.20;99.90;;;;;;5044130;28;20191;-78
2023/01/11 08:38:30;;;;;;;0.20;0.20;;;8.20;99.90;;;;;;5048593;28;20210;-79
2023/01/11 08:40:55;;;;;;;0.20;0.20;;;8.20;99.90;;;;;;5048253;28;20925;-79
2023/01/11 08:43:21;;;;;;;0.20;0.20;;;8.20;99.90;;;;;;5042597;28;20214;-79
2023/01/11 08:45:49;;;;;;;0.20;0.20;;;8.40;99.90;;;;;;5038317;28;20190;-78
2023/01/11 08:48:14;;;;;;;0.20;0.20;;;8.30;99.90;;;;;;5043319;28;20190;-79
2023/01/11 08:50:40;;;;;;;0.20;0.20;;;8.40;99.90;;;;;;5047320;28;20443;-79
2023/01/11 08:53:06;;;;;;;0.20;0.20;;;8.40;99.90;;;;;;5044131;28;20750;-78
2023/01/11 08:55:31;;;;;;;0.20;0.20;;;8.40;99.90;;;;;;5028020;28;20278;-78
2023/01/11 08:57:57;;;;;;;0.20;0.20;;;8.40;99.90;;;;;;5030412;28;20187;-78
2023/01/11 09:00:22;;;;;;;0.20;0.20;;;8.40;99.90;;;;;;5048930;28;20187;-78
2023/01/11 09:02:48;;;;;;;0.20;0.20;;;8.40;99.90;;;;;;5027862;28;20182;-78
2023/01/11 09:05:13;;;;;;;0.20;0.20;;;8.40;99.90;;;;;;5029075;28;20568;-78
2023/01/11 09:07:39;;;;;;;0.20;0.20;;;8.40;99.90;;;;;;5034023;28;20286;-79
2023/01/11 09:10:05;;;;;;;0.20;0.20;;;8.40;99.90;;;;;;5046305;28;20768;-78
2023/01/11 09:12:31;;;;;;;0.20;0.20;;;8.40;99.90;;;;;;5045090;28;20226;-79
2023/01/11 09:14:57;;;;;;;0.20;0.20;;;8.40;99.90;;;;;;5043974;28;21034;-79
2023/01/11 09:17:23;;;;;;;0.20;0.20;;;8.30;99.90;;;;;;5048083;28;20457;-80
2023/01/11 09:19:48;;;;;;;0.20;0.20;;;8.40;99.90;;;;;;5044258;28;20519;-78
2023/01/11 09:22:14;;;;;;;0.20;0.20;;;8.30;99.90;;;;;;5049778;28;20201;-81
2023/01/11 09:24:39;;;;;;;0.20;0.20;;;8.40;99.90;;;;;;5043472;28;20210;-81
2023/01/11 09:27:05;;;;;;;0.20;0.20;;;8.30;99.90;;;;;;5041925;28;20199;-80
2023/01/11 09:29:30;;;;;;;0.20;0.20;;;8.30;99.90;;;;;;5023636;28;20191;-82
2023/01/11 09:31:56;;;;;;;0.20;0.20;;;8.40;99.90;;;;;;5022831;28;20287;-83
2023/01/11 09:34:24;;;;;;;0.20;0.20;;;8.40;99.90;;;;;;5020001;28;20227;-86
2023/01/11 09:36:50;;;;;;;0.20;0.20;;;8.30;99.90;;;;;;5040671;28;20213;-81
2023/01/11 09:39:19;;;;;;;0.20;0.20;;;8.40;99.90;;;;;;5023280;28;20448;-82
2023/01/11 09:42:11;;;;;;;0.20;0.20;;;8.30;99.90;;;;;;5022512;28;20959;-80
2023/01/11 09:44:52;;;;;;;0.20;0.20;;;8.40;99.90;;;;;;5036843;28;20882;-81
2023/01/11 09:47:39;;;;;;;0.20;0.20;;;8.30;99.90;;;;;;5029772;28;20472;-78
2023/01/11 09:50:27;;;;;;;0.20;0.20;;;8.30;99.90;;;;;;5026310;28;20469;-83
2023/01/11 09:52:57;;;;;;;0.20;0.20;;;8.30;99.90;;;;;;5041108;28;20542;-78
2023/01/11 09:55:32;;;;;;;0.30;0.30;;;8.30;99.90;;;;;;5025418;28;20438;-81
2023/01/11 09:58:21;;;;;;;0.20;0.20;;;8.30;99.90;;;;;;5016724;28;20443;-80
2023/01/11 10:01:16;;;;;;;0.20;0.20;;;8.30;99.90;;;;;;5039980;28;20449;-81
2023/01/11 10:04:37;;;;;;;0.20;0.20;;;8.30;99.90;;;;;;5049888;28;20499;-80
2023/01/11 10:07:11;;;;;;;0.20;0.20;;;8.30;99.90;;;;;;4984423;28;20829;-81
2023/01/11 10:10:06;;;;;;;0.20;0.20;;;8.30;99.90;;;;;;5025697;28;20449;-81
2023/01/11 10:13:14;;;;;;;0.20;0.20;;;8.40;99.90;;;;;;5042893;28;21141;-80
2023/01/11 10:16:08;;;;;;;0.20;0.20;;;8.40;99.90;;;;;;5048089;28;20445;-81
2023/01/11 10:18:53;;;;;;;0.20;0.20;;;8.50;99.90;;;;;;5047743;28;20448;-80
2023/01/11 10:21:40;;;;;;;0.20;0.20;;;8.50;99.90;;;;;;5045347;28;20528;-80
2023/01/11 10:24:33;;;;;;;0.30;0.30;;;8.50;99.90;;;;;;5045072;28;20447;-80
2023/01/11 10:27:02;;;;;;;0.20;0.20;;;8.50;99.90;;;;;;5030719;28;20953;-81
2023/01/11 10:32:52;;;;;;;0.20;0.20;;;8.50;99.90;;;;;;5043654;28;20437;-79
2023/01/11 10:35:44;;;;;;;0.20;0.20;;;8.50;99.90;;;;;;5039625;28;20457;-80
2023/01/11 10:41:24;;;;;;;0.20;0.20;;;8.60;99.90;;;;;;5046215;28;20462;-81
2023/01/11 10:44:08;;;;;;;0.20;0.20;;;8.60;99.90;;;;;;5022658;28;20480;-80
2023/01/11 10:46:48;;;;;;;0.20;0.20;;;8.60;99.90;;;;;;5038142;28;20500;-81
2023/01/11 10:49:28;;;;;;;0.30;0.30;;;8.60;99.90;;;;;;5048571;28;20433;-80
2023/01/11 10:52:03;;;;;;;0.20;0.20;;;8.50;99.90;;;;;;5039752;28;20937;-81
2023/01/11 10:54:32;;;;;;;0.20;0.20;;;8.50;99.90;;;;;;5027858;28;20480;-80
2023/01/11 10:57:37;;;;;;;0.20;0.20;;;8.50;99.90;;;;;;5041403;28;20451;-81
2023/01/11 11:00:43;;;;;;;0.20;0.20;;;8.50;99.90;;;;;;5043962;28;20454;-81
2023/01/11 11:03:40;;;;;;;0.20;0.20;;;8.50;99.90;;;;;;5030490;28;21112;-81
2023/01/11 11:06:24;;;;;;;0.20;0.20;;;8.50;99.90;;;;;;5049826;28;20509;-80
2023/01/11 11:09:05;;;;;;;0.20;0.20;;;8.50;99.90;;;;;;5028962;28;20785;-81
2023/01/11 11:11:37;;;;;;;0.20;0.20;;;8.50;99.90;;;;;;5024691;28;20440;-81
2023/01/11 11:14:13;;;;;;;0.20;0.20;;;8.40;99.90;;;;;;5042674;28;20632;-82
2023/01/11 11:17:11;;;;;;;0.23;0.23;;;8.40;99.90;;;;;;5033172;28;21031;-80
2023/01/11 11:19:37;;;;;;;0.20;0.20;;;8.40;99.90;;;;;;5049350;28;20441;-80
2023/01/11 11:22:02;;;;;;;0.20;0.20;;;8.50;99.90;;;;;;5041714;28;21892;-80
2023/01/11 11:24:34;;;;;;;0.20;0.20;;;8.50;99.90;;;;;;5026631;28;20194;-80
2023/01/11 11:27:25;;;;;;;0.20;0.20;;;8.50;99.90;;;;;;5035952;28;20180;-80
2023/01/11 11:29:53;;;;;;;0.20;0.20;;;8.50;99.90;;;;;;5040949;28;20525;-80
2023/01/11 11:32:36;;;;;;;0.20;0.20;;;8.50;99.90;;;;;;5046131;28;21010;-80
2023/01/11 11:35:01;;;;;;;0.20;0.20;;;8.50;99.90;;;;;;5026884;28;20499;-78
2023/01/11 11:37:33;;;;;;;0.20;0.20;;;8.50;99.90;;;;;;5042247;28;20441;-79
2023/01/11 11:39:58;;;;;;;0.20;0.20;;;8.50;99.90;;;;;;5026764;28;20736;-78
2023/01/11 11:42:25;;;;;;;0.20;0.20;;;8.40;99.90;;;;;;5047428;28;20445;-80
2023/01/11 11:45:08;;;;;;;0.20;0.20;;;8.50;99.90;;;;;;5028646;28;20186;-79
2023/01/11 11:47:35;;;;;;;0.20;0.20;;;8.50;99.90;;;;;;5047857;28;20452;-80
2023/01/11 11:50:18;;;;;;;0.20;0.20;;;8.50;99.90;;;;;;5031005;28;20437;-80
2023/01/11 11:52:50;;;;;;;0.20;0.20;;;8.50;99.90;;;;;;5044915;28;20475;-79
2023/01/11 11:55:18;;;;;;;0.20;0.20;;;8.50;99.90;;;;;;5031527;28;20441;-79
2023/01/11 11:57:46;;;;;;;0.20;0.20;;;8.50;99.90;;;;;;5028270;28;20449;-79
2023/01/11 12:00:29;;;;;;;0.20;0.20;;;8.50;99.90;;;;;;5032488;28;20461;-79
2023/01/11 12:03:15;;;;;;;0.20;0.20;;;8.50;99.90;;;;;;5012840;28;20460;-80
2023/01/11 12:05:50;;;;;;;0.20;0.20;;;8.50;99.90;;;;;;5029361;28;20468;-79
2023/01/11 12:08:17;;;;;;;0.23;0.23;;;8.40;99.90;;;;;;5044986;28;20487;-79
2023/01/11 12:10:58;;;;;;;0.20;0.20;;;8.40;99.90;;;;;;5029974;28;20429;-79
2023/01/11 12:13:35;;;;;;;0.20;0.20;;;8.40;99.90;;;;;;5039409;28;20556;-79
2023/01/11 12:16:04;;;;;;;0.20;0.20;;;8.50;99.90;;;;;;5028641;28;20987;-79
2023/01/11 12:18:36;;;;;;;0.20;0.20;;;8.40;99.90;;;;;;5044238;28;20447;-79
2023/01/11 12:21:28;;;;;;;0.20;0.20;;;8.50;99.90;;;;;;5044893;28;20473;-79
2023/01/11 12:24:06;;;;;;;0.20;0.20;;;8.50;99.90;;;;;;5037505;28;20502;-79
2023/01/11 12:26:53;;;;;;;0.20;0.20;;;8.50;99.90;;;;;;5038439;28;20558;-78
2023/01/11 12:29:48;;;;;;;0.20;0.20;;;8.50;99.90;;;;;;5028661;28;20445;-79
2023/01/11 12:32:49;;;;;;;0.20;0.20;;;8.50;99.90;;;;;;5021596;28;20457;-79
2023/01/11 12:35:39;;;;;;;0.20;0.20;;;8.40;99.90;;;;;;5039150;28;20448;-79
2023/01/11 12:38:16;;;;;;;0.20;0.20;;;8.40;99.90;;;;;;5049507;28;20425;-79
2023/01/11 12:41:00;;;;;;;0.20;0.20;;;8.40;99.90;;;;;;5049407;28;20447;-79
2023/01/11 12:44:03;;;;;;;0.20;0.20;;;8.40;99.90;;;;;;5047315;28;21061;-78
2023/01/11 12:46:57;;;;;;;0.20;0.20;;;8.40;99.90;;;;;;5024579;28;20440;-79
2023/01/11 12:49:25;;;;;;;0.20;0.20;;;8.40;99.90;;;;;;5047652;28;20440;-80
2023/01/11 12:52:11;;;;;;;0.20;0.20;;;8.40;99.90;;;;;;5045846;28;20441;-80
2023/01/11 12:54:52;;;;;;;0.20;0.20;;;8.30;99.90;;;;;;5033068;28;21004;-80
2023/01/11 12:57:40;;;;;;;0.20;0.20;;;8.30;99.90;;;;;;5045985;28;20796;-80
2023/01/11 13:00:29;;;;;;;0.20;0.20;;;8.30;99.90;;;;;;5029666;28;20498;-79
2023/01/11 13:03:17;;;;;;;0.30;0.30;;;8.30;99.90;;;;;;5041729;28;20452;-79
2023/01/11 13:05:54;;;;;;;0.20;0.20;;;8.30;99.90;;;;;;5027400;28;20486;-80
2023/01/11 13:08:34;;;;;;;0.20;0.20;;;8.30;99.90;;;;;;5030755;28;20442;-80
2023/01/11 13:11:35;;;;;;;0.20;0.20;;;8.30;99.90;;;;;;5048141;28;20552;-80
2023/01/11 13:14:43;;;;;;;0.20;0.20;;;8.30;99.90;;;;;;5022099;28;20536;-79
2023/01/11 13:17:32;;;;;;;0.30;0.30;;;8.30;99.90;;;;;;5029944;28;20644;-79
2023/01/11 13:20:25;;;;;;;0.20;0.20;;;8.30;99.90;;;;;;5019922;28;20455;-80
2023/01/11 13:23:00;;;;;;;0.20;0.20;;;8.30;99.90;;;;;;5030972;28;20446;-80
2023/01/11 13:25:28;;;;;;;0.20;0.20;;;8.30;99.90;;;;;;5030981;28;20476;-80
2023/01/11 13:27:56;;;;;;;0.20;0.20;;;8.40;99.90;;;;;;5030554;28;20505;-79
2023/01/11 13:30:23;;;;;;;0.20;0.20;;;8.50;99.90;;;;;;5029931;28;20448;-81
2023/01/11 13:33:09;;;;;;;0.20;0.20;;;9.40;99.90;;;;;;5033256;28;20548;-79
2023/01/11 13:36:06;;;;;;;0.20;0.20;;;11.30;99.90;;;;;;5017507;28;20451;-80
2023/01/11 13:38:44;;;;;;;0.20;0.20;;;12.10;99.90;;;;;;5009953;28;20457;-81
2023/01/11 13:41:32;;;;;;;0.10;0.10;;;12.60;99.90;;;;;;5027533;28;20520;-80
2023/01/11 13:44:07;;;;;;;0.10;0.10;;;12.50;99.90;;;;;;5027257;28;20450;-81
2023/01/11 13:46:50;;;;;;;0.10;0.10;;;12.80;99.90;;;;;;5026040;28;20929;-79
2023/01/11 13:49:18;;;;;;;0.10;0.10;;;12.80;99.90;;;;;;5031502;28;21004;-80
2023/01/11 13:51:52;;;;;;;0.10;0.10;;;12.30;99.90;;;;;;5026640;28;20445;-80